createdAt,value
2023-05-10T00:06:19.341Z,6.64
2023-05-10T00:16:22.366Z,6.55
2023-05-10T00:26:27.079Z,6.49
2023-05-10T00:36:29.988Z,6.39
2023-05-10T00:46:34.696Z,6.31
2023-05-10T00:56:38.245Z,6.23
2023-05-10T01:06:43.908Z,6.15
2023-05-10T01:16:48.684Z,6.07
2023-05-10T01:27:23.926Z,6.01
2023-05-10T01:37:35.585Z,5.96
2023-05-10T01:47:40.182Z,5.92
2023-05-10T01:57:47.694Z,5.89
2023-05-10T02:07:56.239Z,5.87
2023-05-10T02:18:02.247Z,5.85
2023-05-10T02:28:06.957Z,5.85
2023-05-10T02:38:13.812Z,5.88
2023-05-10T02:48:18.100Z,5.91
2023-05-10T02:58:23.588Z,5.98
2023-05-10T03:08:27.151Z,6.07
2023-05-10T03:18:38.656Z,6.22
2023-05-10T03:28:42.919Z,6.38
2023-05-10T03:38:47.491Z,6.57
2023-05-10T03:48:50.364Z,6.76
2023-05-10T03:58:55.427Z,7.01
2023-05-10T04:09:01.047Z,7.30
2023-05-10T04:19:05.688Z,7.56
2023-05-10T04:29:08.694Z,7.82
2023-05-10T04:39:13.022Z,8.11
2023-05-10T04:49:16.059Z,8.53
2023-05-10T04:59:20.435Z,8.93
2023-05-10T05:09:23.442Z,9.37
2023-05-10T05:19:28.692Z,9.78
2023-05-10T05:29:31.917Z,10.26
2023-05-10T05:39:37.516Z,10.72
2023-05-10T05:49:40.885Z,11.19
2023-05-10T05:59:45.677Z,11.65
2023-05-10T06:09:48.600Z,12.20
2023-05-10T06:19:52.917Z,12.69
2023-05-10T06:29:59.357Z,13.20
2023-05-10T06:40:14.145Z,13.65
2023-05-10T06:50:17.050Z,14.08
2023-05-10T07:00:22.098Z,14.49
2023-05-10T07:10:25.003Z,14.87
2023-05-10T07:20:32.078Z,15.15
2023-05-10T07:30:35.081Z,15.43
2023-05-10T07:40:42.022Z,15.56
2023-05-10T07:50:47.844Z,15.65
2023-05-10T08:00:52.130Z,15.77
2023-05-10T08:10:55.073Z,15.87
2023-05-10T08:20:59.581Z,15.98
2023-05-10T08:31:02.604Z,16.12
2023-05-10T08:41:07.673Z,16.25
2023-05-10T08:51:13.454Z,16.35
2023-05-10T09:01:19.827Z,16.36
2023-05-10T09:11:22.996Z,16.37
2023-05-10T09:21:27.904Z,16.39
2023-05-10T09:31:47.826Z,16.47
2023-05-10T09:41:55.008Z,16.54
2023-05-10T09:52:06.198Z,16.59
2023-05-10T10:02:10.621Z,16.69
2023-05-10T10:12:14.292Z,16.81
2023-05-10T10:22:18.820Z,16.88
2023-05-10T10:32:34.376Z,16.91
2023-05-10T10:42:51.056Z,16.97
2023-05-10T10:52:54.441Z,17.10
2023-05-10T11:03:07.852Z,17.24
2023-05-10T11:13:13.858Z,17.39
2023-05-10T11:23:19.496Z,17.54
2023-05-10T11:33:22.632Z,17.58
2023-05-10T11:43:31.759Z,17.64
2023-05-10T11:53:35.637Z,17.74
2023-05-10T12:03:42.022Z,17.85
2023-05-10T12:13:49.017Z,17.90
2023-05-10T12:23:54.603Z,17.96
2023-05-10T12:33:57.603Z,17.98
2023-05-10T12:44:02.012Z,17.92
2023-05-10T12:54:05.209Z,17.85
2023-05-10T13:04:12.448Z,17.81
2023-05-10T13:14:15.760Z,17.82
2023-05-10T13:24:23.556Z,17.85
2023-05-10T13:34:26.498Z,17.90
2023-05-10T13:44:30.949Z,17.90
2023-05-10T13:54:34.149Z,17.82
2023-05-10T14:04:38.943Z,17.73
2023-05-10T14:14:41.955Z,17.66
2023-05-10T14:24:54.906Z,17.64
2023-05-10T14:35:01.711Z,17.62
2023-05-10T14:45:07.923Z,17.59
2023-05-10T14:55:11.260Z,17.54
2023-05-10T15:05:16.353Z,17.47
2023-05-10T15:15:20.308Z,17.41
2023-05-10T15:25:32.837Z,17.34
2023-05-10T15:35:37.024Z,17.24
2023-05-10T15:45:41.906Z,17.12
2023-05-10T15:55:45.155Z,17.00
2023-05-10T16:05:49.836Z,16.89
2023-05-10T16:15:53.606Z,16.78
2023-05-10T16:25:58.301Z,16.66
2023-05-10T16:36:01.450Z,16.54
2023-05-10T16:46:12.673Z,16.41
2023-05-10T16:56:18.006Z,16.27
2023-05-10T17:06:22.428Z,16.14
2023-05-10T17:16:25.808Z,16.03
2023-05-10T17:26:30.522Z,15.92
2023-05-10T17:36:33.838Z,15.80
2023-05-10T17:46:38.473Z,15.66
2023-05-10T17:56:41.621Z,15.53
2023-05-10T18:06:48.393Z,15.40
2023-05-10T18:16:52.069Z,15.27
2023-05-10T18:26:56.718Z,15.16
2023-05-10T18:37:00.192Z,15.05
2023-05-10T18:47:05.085Z,14.93
2023-05-10T18:57:08.243Z,14.83
2023-05-10T19:07:15.866Z,14.73
2023-05-10T19:17:22.578Z,14.60
2023-05-10T19:27:30.758Z,14.49
2023-05-10T19:37:40.798Z,14.40
2023-05-10T19:48:15.390Z,14.30
2023-05-10T19:58:19.963Z,14.21
2023-05-10T20:08:25.265Z,14.07
2023-05-10T20:18:28.272Z,13.95
2023-05-10T20:28:35.360Z,13.86
2023-05-10T20:38:39.674Z,13.77
2023-05-10T20:48:44.244Z,13.64
2023-05-10T20:58:47.717Z,13.55
2023-05-10T21:08:52.044Z,13.45
2023-05-10T21:18:58.211Z,13.35
2023-05-10T21:29:04.695Z,13.26
2023-05-10T21:39:07.808Z,13.18
2023-05-10T21:49:12.246Z,13.08
2023-05-10T21:59:15.292Z,12.99
2023-05-10T22:09:20.954Z,12.90
2023-05-10T22:19:24.136Z,12.82
2023-05-10T22:29:28.503Z,12.74
2023-05-10T22:39:31.716Z,12.67
2023-05-10T22:49:36.033Z,12.57
2023-05-10T22:59:38.977Z,12.50
2023-05-10T23:09:43.482Z,12.44
2023-05-10T23:19:46.446Z,12.36
2023-05-10T23:29:55.867Z,12.27
2023-05-10T23:39:58.992Z,12.20
2023-05-10T23:50:05.485Z,12.13
